Time;durP1;ratioP1;P1;durP2;ratioP2;P2;SDS_P1;SDS_P2;PMS_P1;PMS_P2;Temp;Humidity;BMP_temperature;BMP_pressure;BME280_temperature;BME280_humidity;BME280_pressure;Samples;Min_cycle;Max_cycle;Signal;HPM_P1;HPM_P2
2022/06/13 00:00:23;;;;;;;;;;;14.00;99.90;;;;;;5051300;28;19928;-67
2022/06/13 00:02:50;;;;;;;;;;;14.00;99.90;;;;;;5067478;28;19925;-67
2022/06/13 00:05:18;;;;;;;;;;;14.00;99.90;;;;;;5067621;28;19971;-68
2022/06/13 00:07:45;;;;;;;;;;;14.00;99.90;;;;;;5050978;28;19925;-67
2022/06/13 00:10:13;;;;;;;;;;;13.90;99.90;;;;;;5067504;28;20338;-68
2022/06/13 00:12:40;;;;;;;;;;;13.90;99.90;;;;;;5067788;28;19925;-68
2022/06/13 00:15:07;;;;;;;;;;;13.90;99.90;;;;;;5067177;28;19956;-67
2022/06/13 00:17:34;;;;;;;;;;;13.80;99.90;;;;;;5067492;28;19928;-68
2022/06/13 00:20:01;;;;;;;;;;;13.80;99.90;;;;;;5067476;28;20445;-67
2022/06/13 00:22:29;;;;;;;;;;;13.70;99.90;;;;;;5067439;28;20352;-68
2022/06/13 00:24:57;;;;;;;;;;;13.70;99.90;;;;;;5067478;28;19971;-67
2022/06/13 00:27:23;;;;;;;;;;;13.60;99.90;;;;;;5067736;28;19925;-67
2022/06/13 00:29:50;;;;;;;;;;;13.60;99.90;;;;;;5068632;28;19986;-66
2022/06/13 00:32:17;;;;;;;;;;;13.60;99.90;;;;;;5051448;28;19928;-65
2022/06/13 00:34:44;;;;;;;;;;;13.60;99.90;;;;;;5050302;28;20339;-65
2022/06/13 00:37:11;;;;;;;;;;;13.70;99.90;;;;;;5067238;28;19971;-65
2022/06/13 00:39:39;;;;;;;;;;;13.70;99.90;;;;;;5066911;28;19925;-65
2022/06/13 00:42:06;;;;;;;;;;;13.60;99.90;;;;;;5066969;28;20454;-65
2022/06/13 00:44:35;;;;;;;;;;;13.60;99.90;;;;;;5051334;28;19925;-66
2022/06/13 00:47:02;;;;;;;;;;;13.60;99.90;;;;;;5066750;28;20355;-65
2022/06/13 00:49:30;;;;;;;;;;;13.50;99.90;;;;;;5066795;28;19986;-65
2022/06/13 00:52:00;;;;;;;;;;;13.40;99.90;;;;;;5050369;28;19929;-65
2022/06/13 00:54:27;;;;;;;;;;;13.40;99.90;;;;;;5066528;28;20384;-65
2022/06/13 00:56:55;;;;;;;;;;;13.40;99.90;;;;;;5066719;28;19978;-67
2022/06/13 00:59:23;;;;;;;;;;;13.30;99.90;;;;;;5066795;28;19929;-68
2022/06/13 01:01:50;;;;;;;;;;;13.30;99.90;;;;;;5066996;28;19928;-68
2022/06/13 01:04:17;;;;;;;;;;;13.20;99.90;;;;;;5066535;28;19925;-67
2022/06/13 01:06:46;;;;;;;;;;;13.20;99.90;;;;;;5066737;28;19924;-67
2022/06/13 01:09:14;;;;;;;;;;;13.20;99.90;;;;;;5066405;28;19932;-67
2022/06/13 01:11:44;;;;;;;;;;;13.10;99.90;;;;;;5049840;28;19979;-67
2022/06/13 01:14:37;;;;;;;;;;;13.10;99.90;;;;;;5049965;28;19970;-67
2022/06/13 01:17:17;;;;;;;;;;;13.00;99.90;;;;;;5049709;28;19929;-67
2022/06/13 01:20:06;;;;;;;;;;;12.90;99.90;;;;;;5066479;28;20396;-67
2022/06/13 01:22:55;;;;;;;;;;;12.90;99.90;;;;;;5066670;28;20289;-67
2022/06/13 01:25:29;;;;;;;;;;;12.80;99.90;;;;;;5066402;28;20072;-67
2022/06/13 01:28:12;;;;;;;;;;;12.70;99.90;;;;;;5066395;28;19925;-68
2022/06/13 01:30:59;;;;;;;;;;;12.70;99.90;;;;;;5066650;28;19928;-67
2022/06/13 01:33:32;;;;;;;;;;;12.70;99.90;;;;;;5057925;28;19974;-67
2022/06/13 01:36:02;;;;;;;;;;;12.60;99.90;;;;;;5066536;28;19925;-67
2022/06/13 01:38:37;;;;;;;;;;;12.60;99.90;;;;;;5066057;28;19925;-67
2022/06/13 01:41:08;;;;;;;;;;;12.60;99.90;;;;;;5065539;28;20391;-66
2022/06/13 01:43:44;;;;;;;;;;;12.60;99.90;;;;;;5065941;28;19925;-66
2022/06/13 01:46:14;;;;;;;;;;;12.30;99.90;;;;;;5066730;28;19929;-66
2022/06/13 01:48:47;;;;;;;;;;;12.30;99.90;;;;;;5066257;28;19986;-66
2022/06/13 01:51:17;;;;;;;;;;;12.30;99.90;;;;;;5066322;28;19924;-65
2022/06/13 01:53:49;;;;;;;;;;;12.30;99.90;;;;;;5066110;28;19933;-66
2022/06/13 01:56:16;;;;;;;;;;;12.20;99.90;;;;;;5066025;28;19935;-69
2022/06/13 01:58:45;;;;;;;;;;;12.20;99.90;;;;;;5049550;28;19929;-68
2022/06/13 02:01:17;;;;;;;;;;;12.10;99.90;;;;;;5066517;28;19928;-68
2022/06/13 02:03:47;;;;;;;;;;;12.10;99.90;;;;;;5066025;28;19933;-66
2022/06/13 02:06:16;;;;;;;;;;;12.10;99.90;;;;;;5066308;28;20408;-66
2022/06/13 02:08:45;;;;;;;;;;;12.20;99.90;;;;;;5066198;28;19975;-65
2022/06/13 02:11:14;;;;;;;;;;;12.30;99.90;;;;;;5066315;28;19944;-66
2022/06/13 02:13:43;;;;;;;;;;;12.30;99.90;;;;;;5066186;28;19929;-66
2022/06/13 02:16:13;;;;;;;;;;;12.20;99.90;;;;;;5066307;28;19929;-67
2022/06/13 02:18:43;;;;;;;;;;;12.20;99.90;;;;;;5066076;28;19931;-66
2022/06/13 02:21:12;;;;;;;;;;;12.20;99.90;;;;;;5068695;28;19929;-66
2022/06/13 02:23:43;;;;;;;;;;;12.10;99.90;;;;;;5069523;28;19928;-66
2022/06/13 02:26:11;;;;;;;;;;;12.10;99.90;;;;;;5069798;28;19975;-67
2022/06/13 02:28:41;;;;;;;;;;;12.10;99.90;;;;;;5069581;28;19928;-66
2022/06/13 02:31:10;;;;;;;;;;;12.00;99.90;;;;;;5069614;28;19932;-66
2022/06/13 02:33:39;;;;;;;;;;;12.00;99.90;;;;;;5052500;28;19929;-66
2022/06/13 02:36:10;;;;;;;;;;;12.00;99.90;;;;;;5052970;28;19986;-67
2022/06/13 02:38:42;;;;;;;;;;;12.00;99.90;;;;;;5069420;28;20350;-67
2022/06/13 02:41:10;;;;;;;;;;;11.90;99.90;;;;;;5069648;28;19924;-67
2022/06/13 02:43:40;;;;;;;;;;;11.90;99.90;;;;;;5069212;28;19924;-66
2022/06/13 02:46:09;;;;;;;;;;;11.80;99.90;;;;;;5069382;28;19925;-67
2022/06/13 02:48:39;;;;;;;;;;;11.80;99.90;;;;;;5069462;28;19924;-67
2022/06/13 02:51:08;;;;;;;;;;;11.80;99.90;;;;;;5069179;28;19925;-67
2022/06/13 02:53:46;;;;;;;;;;;11.70;99.90;;;;;;5052534;28;19970;-66
2022/06/13 02:56:21;;;;;;;;;;;11.80;99.90;;;;;;5069253;28;19929;-67
2022/06/13 02:58:53;;;;;;;;;;;11.70;99.90;;;;;;5052247;28;19925;-67
2022/06/13 03:01:22;;;;;;;;;;;11.60;99.90;;;;;;5069354;28;19970;-67
2022/06/13 03:03:54;;;;;;;;;;;11.50;99.90;;;;;;5069006;28;20466;-67
2022/06/13 03:06:24;;;;;;;;;;;11.40;99.90;;;;;;5069058;28;19971;-67
2022/06/13 03:08:56;;;;;;;;;;;11.40;99.90;;;;;;5068700;28;20454;-66
2022/06/13 03:11:32;;;;;;;;;;;11.30;99.90;;;;;;5069169;28;19929;-67
2022/06/13 03:14:06;;;;;;;;;;;11.30;99.90;;;;;;5052023;28;19932;-67
2022/06/13 03:16:41;;;;;;;;;;;11.30;99.90;;;;;;5068720;28;19929;-67
2022/06/13 03:19:11;;;;;;;;;;;11.40;99.90;;;;;;5068473;28;19925;-67
2022/06/13 03:21:40;;;;;;;;;;;11.40;99.90;;;;;;5068743;28;19929;-67
2022/06/13 03:24:11;;;;;;;;;;;11.40;99.90;;;;;;5068777;28;19924;-67
2022/06/13 03:26:41;;;;;;;;;;;11.50;99.90;;;;;;5068709;28;19956;-67
2022/06/13 03:29:11;;;;;;;;;;;11.60;99.90;;;;;;5068741;28;19954;-67
2022/06/13 03:31:40;;;;;;;;;;;11.60;99.90;;;;;;5067535;28;19929;-67
2022/06/13 03:34:08;;;;;;;;;;;11.60;99.90;;;;;;5068467;28;19932;-67
2022/06/13 03:36:36;;;;;;;;;;;11.70;99.90;;;;;;5051907;28;19979;-67
2022/06/13 03:39:10;;;;;;;;;;;11.70;99.90;;;;;;5068205;28;19925;-66
2022/06/13 03:41:39;;;;;;;;;;;11.70;99.90;;;;;;5068414;28;20355;-67
2022/06/13 03:44:10;;;;;;;;;;;11.80;99.90;;;;;;5051275;28;19925;-67
2022/06/13 03:46:41;;;;;;;;;;;11.80;99.90;;;;;;5068169;28;19971;-67
2022/06/13 03:49:11;;;;;;;;;;;11.80;99.90;;;;;;5068099;28;20339;-67
2022/06/13 03:51:39;;;;;;;;;;;11.90;99.90;;;;;;5051339;28;19929;-67
2022/06/13 03:54:08;;;;;;;;;;;12.00;99.90;;;;;;5067970;28;19931;-67
2022/06/13 03:56:37;;;;;;;;;;;12.00;99.90;;;;;;5067968;28;19924;-67
2022/06/13 03:59:06;;;;;;;;;;;12.00;99.90;;;;;;5067800;28;19933;-66
2022/06/13 04:01:36;;;;;;;;;;;12.00;99.90;;;;;;5051319;28;20376;-67
2022/06/13 04:04:03;;;;;;;;;;;12.00;99.90;;;;;;5067749;28;19929;-67
2022/06/13 04:06:31;;;;;;;;;;;11.90;99.90;;;;;;5067770;28;19925;-67
2022/06/13 04:08:58;;;;;;;;;;;11.90;99.90;;;;;;5067371;28;19928;-67
2022/06/13 04:11:32;;;;;;;;;;;11.90;99.90;;;;;;5067870;28;19924;-66
2022/06/13 04:14:03;;;;;;;;;;;11.80;99.90;;;;;;5067389;28;19932;-67
2022/06/13 04:16:38;;;;;;;;;;;11.80;99.90;;;;;;5067900;28;19950;-67
2022/06/13 04:19:14;;;;;;;;;;;11.70;99.90;;;;;;5067280;28;19929;-67
2022/06/13 04:21:57;;;;;;;;;;;11.70;99.90;;;;;;5067613;28;19925;-67
2022/06/13 04:24:29;;;;;;;;;;;11.60;99.90;;;;;;5067499;28;19929;-67
2022/06/13 04:27:00;;;;;;;;;;;11.70;99.90;;;;;;5067246;28;19925;-66
2022/06/13 04:29:29;;;;;;;;;;;11.80;99.90;;;;;;5067310;28;19929;-67
2022/06/13 04:31:59;;;;;;;;;;;12.00;99.90;;;;;;5050669;28;20384;-67
2022/06/13 04:34:29;;;;;;;;;;;12.20;99.90;;;;;;5067072;28;19979;-67
2022/06/13 04:36:56;;;;;;;;;;;12.40;99.90;;;;;;5067255;28;19924;-66
2022/06/13 04:39:26;;;;;;;;;;;12.50;99.90;;;;;;5066945;28;19929;-67
2022/06/13 04:41:54;;;;;;;;;;;12.60;99.90;;;;;;5067096;28;20112;-67
2022/06/13 04:44:23;;;;;;;;;;;12.80;99.90;;;;;;5066659;28;19925;-67
2022/06/13 04:46:51;;;;;;;;;;;12.80;99.90;;;;;;5066927;28;19975;-66
2022/06/13 04:49:23;;;;;;;;;;;12.90;99.90;;;;;;5066766;28;19929;-67
2022/06/13 04:51:52;;;;;;;;;;;13.00;99.90;;;;;;5067119;28;20290;-67
2022/06/13 04:54:23;;;;;;;;;;;13.00;99.90;;;;;;5066834;28;19925;-67
2022/06/13 04:56:50;;;;;;;;;;;13.10;99.90;;;;;;5066837;28;20397;-67
2022/06/13 04:59:17;;;;;;;;;;;13.50;99.90;;;;;;5050074;28;20304;-67
2022/06/13 05:01:47;;;;;;;;;;;13.70;99.90;;;;;;5057685;28;19929;-67
2022/06/13 05:04:16;;;;;;;;;;;13.40;99.90;;;;;;5027882;28;19987;-67
2022/06/13 05:06:45;;;;;;;;;;;13.50;99.90;;;;;;5030151;28;19940;-66
2022/06/13 05:09:16;;;;;;;;;;;13.60;99.90;;;;;;5029831;28;20397;-67
2022/06/13 05:11:48;;;;;;;;;;;13.60;99.90;;;;;;5030058;28;19928;-67
2022/06/13 05:14:16;;;;;;;;;;;13.70;99.90;;;;;;5025829;28;19925;-67
2022/06/13 05:16:50;;;;;;;;;;;13.70;99.90;;;;;;5021376;28;19930;-68
2022/06/13 05:19:26;;;;;;;;;;;13.80;99.90;;;;;;5044704;28;20305;-68
2022/06/13 05:21:56;;;;;;;;;;;14.00;99.90;;;;;;5046803;28;19933;-68
2022/06/13 05:24:34;;;;;;;;;;;14.00;99.90;;;;;;5046162;28;19929;-67
2022/06/13 05:27:05;;;;;;;;;;;14.00;99.90;;;;;;5046421;28;19929;-67
2022/06/13 05:29:32;;;;;;;;;;;14.10;99.90;;;;;;5046375;28;19925;-67
2022/06/13 05:31:59;;;;;;;;;;;14.10;99.90;;;;;;5046411;28;19960;-66
2022/06/13 05:34:28;;;;;;;;;;;14.20;99.90;;;;;;5046323;28;19925;-67
2022/06/13 05:36:55;;;;;;;;;;;14.20;99.90;;;;;;5038844;28;19926;-67
2022/06/13 05:39:22;;;;;;;;;;;14.30;99.90;;;;;;5045021;28;19975;-67
2022/06/13 05:41:50;;;;;;;;;;;14.10;99.90;;;;;;5029997;28;20340;-67
2022/06/13 05:44:17;;;;;;;;;;;14.20;99.90;;;;;;5029878;28;19932;-67
2022/06/13 05:46:44;;;;;;;;;;;14.20;99.90;;;;;;5029963;28;19929;-67
2022/06/13 05:49:13;;;;;;;;;;;14.30;99.90;;;;;;5029596;28;20404;-67
2022/06/13 05:51:41;;;;;;;;;;;14.60;99.90;;;;;;5029713;28;19976;-67
2022/06/13 05:54:09;;;;;;;;;;;14.80;99.90;;;;;;5029886;28;20028;-67
2022/06/13 05:56:36;;;;;;;;;;;14.90;99.90;;;;;;5034207;28;20351;-67
2022/06/13 05:59:05;;;;;;;;;;;14.70;99.90;;;;;;5033308;28;19929;-67
2022/06/13 06:01:35;;;;;;;;;;;14.60;99.90;;;;;;5033694;28;19925;-67
2022/06/13 06:04:02;;;;;;;;;;;14.60;99.90;;;;;;5033286;28;19931;-67
2022/06/13 06:06:29;;;;;;;;;;;14.70;99.90;;;;;;5033221;28;19929;-67
2022/06/13 06:08:56;;;;;;;;;;;14.90;99.90;;;;;;5030414;28;19925;-67
2022/06/13 06:11:24;;;;;;;;;;;15.00;99.90;;;;;;5033496;28;19925;-67
2022/06/13 06:13:51;;;;;;;;;;;15.10;99.90;;;;;;5048072;28;19925;-67
2022/06/13 06:16:20;;;;;;;;;;;15.30;99.90;;;;;;5047957;28;19925;-68
2022/06/13 06:18:47;;;;;;;;;;;15.50;99.90;;;;;;5031256;28;19933;-67
2022/06/13 06:21:14;;;;;;;;;;;15.50;99.90;;;;;;5036233;28;20461;-67
2022/06/13 06:23:41;;;;;;;;;;;15.40;99.90;;;;;;5031524;28;19983;-67
2022/06/13 06:26:08;;;;;;;;;;;15.20;99.90;;;;;;5048666;28;19925;-67
2022/06/13 06:28:35;;;;;;;;;;;15.20;99.90;;;;;;5032034;28;19936;-67
2022/06/13 06:31:03;;;;;;;;;;;15.10;99.90;;;;;;5049010;28;19975;-68
2022/06/13 06:33:32;;;;;;;;;;;15.10;99.90;;;;;;5049420;28;20471;-67
2022/06/13 06:35:59;;;;;;;;;;;15.30;99.90;;;;;;5049792;28;19925;-67
2022/06/13 06:38:26;;;;;;;;;;;15.20;99.90;;;;;;5049480;28;20344;-67
2022/06/13 06:40:53;;;;;;;;;;;15.10;99.90;;;;;;5032680;28;19929;-68
2022/06/13 06:43:20;;;;;;;;;;;15.00;99.90;;;;;;5049950;28;19924;-67
2022/06/13 06:45:47;;;;;;;;;;;14.90;99.90;;;;;;5032974;28;19925;-67
2022/06/13 06:48:14;;;;;;;;;;;15.00;99.90;;;;;;5050027;28;19929;-67
2022/06/13 06:50:45;;;;;;;;;;;15.10;99.90;;;;;;5029808;28;19925;-67
2022/06/13 06:53:13;;;;;;;;;;;15.30;99.90;;;;;;5033098;28;19929;-67
2022/06/13 07:01:11;;;;;;;;;;;15.80;99.90;;;;;;5034388;28;19921;-69
2022/06/13 07:03:38;;;;;;;;;;;16.10;99.90;;;;;;5031425;28;20021;-67
2022/06/13 07:06:08;;;;;;;;;;;16.30;99.90;;;;;;5012525;28;19926;-68
2022/06/13 07:08:34;;;;;;;;;;;16.20;99.90;;;;;;5028857;28;20484;-67
2022/06/13 07:13:43;;;;;;;;;;;16.10;99.90;;;;;;5027867;28;19968;-67
2022/06/13 07:16:09;;;;;;;;;;;16.30;99.90;;;;;;5028929;28;19937;-66
2022/06/13 07:18:36;;;;;;;;;;;16.40;99.90;;;;;;5028265;28;19925;-73
2022/06/13 07:21:03;;;;;;;;;;;16.40;99.90;;;;;;5028928;28;19926;-67
2022/06/13 07:23:31;;;;;;;;;;;16.40;99.90;;;;;;5028842;28;19985;-68
2022/06/13 07:25:58;;;;;;;;;;;16.30;99.90;;;;;;5012378;28;20465;-67
2022/06/13 07:28:25;;;;;;;;;;;16.40;99.90;;;;;;5028316;28;19929;-67
2022/06/13 07:30:52;;;;;;;;;;;16.70;99.90;;;;;;5029726;28;19925;-67
2022/06/13 07:33:19;;;;;;;;;;;16.70;99.90;;;;;;5010683;28;20330;-67
2022/06/13 07:35:46;;;;;;;;;;;16.80;99.90;;;;;;5011909;28;19929;-67
2022/06/13 07:38:19;;;;;;;;;;;17.20;99.90;;;;;;5011388;28;20341;-67
2022/06/13 07:40:49;;;;;;;;;;;17.20;99.90;;;;;;5011921;28;19941;-67
2022/06/13 07:43:22;;;;;;;;;;;16.80;99.90;;;;;;5011755;28;19926;-67
2022/06/13 07:45:49;;;;;;;;;;;16.60;99.90;;;;;;5012928;28;19932;-67
2022/06/13 07:48:16;;;;;;;;;;;16.80;99.90;;;;;;5011596;28;20011;-67
2022/06/13 07:50:42;;;;;;;;;;;16.90;99.90;;;;;;5011594;28;19980;-67
2022/06/13 07:53:09;;;;;;;;;;;16.90;99.90;;;;;;5011749;28;19930;-66
2022/06/13 07:55:37;;;;;;;;;;;17.00;99.90;;;;;;5011362;28;19925;-67
2022/06/13 07:58:05;;;;;;;;;;;16.90;99.90;;;;;;5011292;28;19925;-67
2022/06/13 08:00:33;;;;;;;;;;;17.10;99.90;;;;;;5011353;28;20013;-67
2022/06/13 08:03:01;;;;;;;;;;;17.00;99.90;;;;;;5011326;28;19961;-68
2022/06/13 08:05:27;;;;;;;;;;;17.20;99.90;;;;;;5011255;28;19968;-68
2022/06/13 08:07:54;;;;;;;;;;;17.20;99.90;;;;;;5028261;28;19926;-67
2022/06/13 08:10:21;;;;;;;;;;;17.30;99.90;;;;;;5029615;28;19925;-67
2022/06/13 08:12:48;;;;;;;;;;;17.40;99.90;;;;;;5047652;28;19932;-67
2022/06/13 08:15:16;;;;;;;;;;;17.50;99.90;;;;;;5047372;28;19975;-68
2022/06/13 08:17:43;;;;;;;;;;;17.40;99.90;;;;;;5046848;28;19933;-68
2022/06/13 08:20:11;;;;;;;;;;;17.40;99.90;;;;;;5031051;28;19925;-68
2022/06/13 08:22:41;;;;;;;;;;;17.50;99.90;;;;;;5030780;28;20389;-68
2022/06/13 08:25:08;;;;;;;;;;;17.70;99.90;;;;;;5047214;28;19982;-67
2022/06/13 08:27:35;;;;;;;;;;;17.90;99.90;;;;;;5047368;28;19931;-68
2022/06/13 08:30:01;;;;;;;;;;;17.50;99.90;;;;;;5047198;28;19932;-68
2022/06/13 08:32:30;;;;;;;;;;;17.80;99.90;;;;;;5047251;28;19953;-68
2022/06/13 08:34:56;;;;;;;;;;;18.10;99.90;;;;;;5046988;28;19979;-68
2022/06/13 08:37:23;;;;;;;;;;;18.20;99.90;;;;;;5030603;28;19979;-67
2022/06/13 08:39:50;;;;;;;;;;;18.30;99.90;;;;;;5046394;28;20304;-67
2022/06/13 08:42:20;;;;;;;;;;;18.40;99.90;;;;;;5047160;28;19975;-68
2022/06/13 08:44:53;;;;;;;;;;;18.40;99.90;;;;;;5046873;28;19929;-67
2022/06/13 08:47:23;;;;;;;;;;;18.30;99.90;;;;;;5047122;28;20016;-68
2022/06/13 08:49:57;;;;;;;;;;;18.80;99.90;;;;;;5046863;28;19929;-67
2022/06/13 08:52:26;;;;;;;;;;;19.20;99.90;;;;;;5046967;28;19925;-67
2022/06/13 08:55:00;;;;;;;;;;;19.40;99.90;;;;;;5030085;28;19936;-68
2022/06/13 08:57:27;;;;;;;;;;;19.30;99.90;;;;;;5046941;28;19959;-67
2022/06/13 08:59:56;;;;;;;;;;;19.00;99.90;;;;;;5031067;28;20024;-67
2022/06/13 09:02:24;;;;;;;;;;;19.10;99.90;;;;;;5047208;28;19925;-67
2022/06/13 09:04:54;;;;;;;;;;;19.20;99.90;;;;;;5046185;28;19925;-68
2022/06/13 09:07:23;;;;;;;;;;;19.30;99.90;;;;;;5047251;28;19925;-67
2022/06/13 09:09:55;;;;;;;;;;;19.20;99.90;;;;;;5046656;28;20309;-68
2022/06/13 09:12:25;;;;;;;;;;;19.00;99.90;;;;;;5031463;28;19925;-67
2022/06/13 09:14:57;;;;;;;;;;;19.20;99.90;;;;;;5030067;28;19925;-68
2022/06/13 09:17:26;;;;;;;;;;;19.20;99.90;;;;;;5029964;28;19925;-67
2022/06/13 09:19:56;;;;;;;;;;;19.50;99.90;;;;;;5030043;28;19926;-67
2022/06/13 09:22:25;;;;;;;;;;;19.70;99.90;;;;;;5030173;28;19959;-68
2022/06/13 09:24:55;;;;;;;;;;;19.50;99.90;;;;;;5029837;28;19925;-68
2022/06/13 09:27:25;;;;;;;;;;;19.50;99.90;;;;;;5029996;28;19925;-68
2022/06/13 09:29:54;;;;;;;;;;;19.20;99.90;;;;;;5029774;28;19925;-67
2022/06/13 09:32:21;;;;;;;;;;;19.30;99.90;;;;;;5030528;28;19932;-68
2022/06/13 09:34:50;;;;;;;;;;;19.30;99.90;;;;;;5030436;28;19925;-68
2022/06/13 09:37:21;;;;;;;;;;;19.50;99.90;;;;;;5029937;28;19979;-68
2022/06/13 09:39:49;;;;;;;;;;;19.60;99.90;;;;;;5029804;28;19925;-67
2022/06/13 09:42:25;;;;;;;;;;;19.80;99.90;;;;;;5030714;28;19932;-67
2022/06/13 09:45:03;;;;;;;;;;;19.90;99.90;;;;;;5030232;28;19976;-68
2022/06/13 09:47:36;;;;;;;;;;;20.10;99.90;;;;;;5029957;28;19925;-67
2022/06/13 09:50:07;;;;;;;;;;;20.30;99.90;;;;;;5025859;28;20064;-68
2022/06/13 09:52:40;;;;;;;;;;;20.50;99.90;;;;;;5023494;28;19926;-68
2022/06/13 09:55:12;;;;;;;;;;;20.40;99.90;;;;;;5028799;28;19935;-68
2022/06/13 09:57:44;;;;;;;;;;;20.30;99.90;;;;;;5026417;28;19930;-68
2022/06/13 10:00:14;;;;;;;;;;;20.40;99.90;;;;;;5026288;28;19980;-68
2022/06/13 10:02:48;;;;;;;;;;;20.20;99.90;;;;;;5036452;28;19929;-68
2022/06/13 10:05:21;;;;;;;;;;;20.10;99.90;;;;;;5044308;28;19932;-67
2022/06/13 10:07:56;;;;;;;;;;;19.90;99.90;;;;;;5033111;28;19925;-68
2022/06/13 10:10:28;;;;;;;;;;;19.90;99.90;;;;;;5063609;28;20358;-67
2022/06/13 10:13:01;;;;;;;;;;;19.80;99.90;;;;;;5029552;28;19925;-68
2022/06/13 10:15:33;;;;;;;;;;;19.90;99.90;;;;;;5029214;28;19929;-68
2022/06/13 10:18:10;;;;;;;;;;;20.20;99.90;;;;;;5028821;28;19925;-67
2022/06/13 10:20:40;;;;;;;;;;;20.00;99.90;;;;;;5029374;28;19933;-67
2022/06/13 10:23:13;;;;;;;;;;;19.80;99.90;;;;;;5029457;28;20324;-68
2022/06/13 10:25:46;;;;;;;;;;;20.00;99.90;;;;;;5029216;28;20025;-68
2022/06/13 10:28:22;;;;;;;;;;;19.80;99.90;;;;;;5028106;28;19929;-68
2022/06/13 10:30:54;;;;;;;;;;;19.80;99.90;;;;;;5029227;28;19929;-68
2022/06/13 10:33:42;;;;;;;;;;;20.00;99.90;;;;;;5029050;28;19978;-68
2022/06/13 10:36:13;;;;;;;;;;;20.50;99.90;;;;;;5022749;28;19933;-67
2022/06/13 10:38:47;;;;;;;;;;;20.30;99.90;;;;;;5028926;28;19929;-68
2022/06/13 10:41:13;;;;;;;;;;;20.30;99.90;;;;;;5030581;28;19929;-68
2022/06/13 10:43:42;;;;;;;;;;;20.00;99.90;;;;;;5032481;28;19929;-67
2022/06/13 10:46:10;;;;;;;;;;;20.10;99.90;;;;;;5051325;28;19929;-67
2022/06/13 10:48:39;;;;;;;;;;;20.20;99.90;;;;;;5034317;28;20355;-68
2022/06/13 10:51:06;;;;;;;;;;;20.40;99.90;;;;;;5032393;28;20385;-68
2022/06/13 10:53:36;;;;;;;;;;;20.80;99.90;;;;;;5032357;28;19926;-67
2022/06/13 10:56:05;;;;;;;;;;;20.80;99.90;;;;;;5032421;28;19929;-68
2022/06/13 10:58:34;;;;;;;;;;;20.70;99.90;;;;;;5031905;28;20393;-68
2022/06/13 11:01:03;;;;;;;;;;;20.60;99.90;;;;;;5031912;28;19925;-68
2022/06/13 11:03:30;;;;;;;;;;;20.80;99.90;;;;;;5032368;28;19959;-68
2022/06/13 11:05:59;;;;;;;;;;;21.20;99.90;;;;;;5032166;28;19925;-69
2022/06/13 11:08:27;;;;;;;;;;;21.40;99.90;;;;;;5032311;28;19929;-67
2022/06/13 11:10:56;;;;;;;;;;;21.20;99.90;;;;;;5028456;28;19933;-67
2022/06/13 11:13:29;;;;;;;;;;;20.90;99.90;;;;;;5029028;28;19929;-68
2022/06/13 11:24:15;;;;;;;;;;;21.20;99.90;;;;;;5011596;28;19926;-68
2022/06/13 11:29:29;;;;;;;;;;;21.20;99.90;;;;;;5011860;28;19961;-68
2022/06/13 11:31:57;;;;;;;;;;;21.40;99.90;;;;;;5031774;28;20028;-68
2022/06/13 11:34:32;;;;;;;;;;;21.50;99.90;;;;;;5036238;28;19928;-68
2022/06/13 11:37:04;;;;;;;;;;;21.60;99.90;;;;;;5048169;28;19925;-68
2022/06/13 11:39:32;;;;;;;;;;;22.20;99.90;;;;;;5031346;28;19983;-68
2022/06/13 11:41:59;;;;;;;;;;;22.80;99.90;;;;;;5048293;28;19928;-68
2022/06/13 11:44:26;;;;;;;;;;;23.60;99.90;;;;;;5052027;28;19951;-68
2022/06/13 11:46:59;;;;;;;;;;;24.10;99.90;;;;;;5067394;28;19925;-68
2022/06/13 11:49:29;;;;;;;;;;;24.80;99.90;;;;;;5067679;28;19925;-68
2022/06/13 11:51:57;;;;;;;;;;;24.80;99.90;;;;;;5051107;28;19925;-68
2022/06/13 11:54:26;;;;;;;;;;;24.90;99.90;;;;;;5066990;28;19982;-68
2022/06/13 11:57:08;;;;;;;;;;;25.30;99.90;;;;;;5067692;28;19925;-68
2022/06/13 11:59:34;;;;;;;;;;;25.90;99.90;;;;;;5067473;28;19925;-66
2022/06/13 12:02:03;;;;;;;;;;;26.00;99.90;;;;;;5051281;28;19964;-66
2022/06/13 12:04:31;;;;;;;;;;;26.00;99.90;;;;;;5067289;28;20362;-67
2022/06/13 12:06:59;;;;;;;;;;;25.70;99.90;;;;;;5067287;28;19924;-67
2022/06/13 12:09:30;;;;;;;;;;;25.50;99.90;;;;;;5067157;28;19929;-67
2022/06/13 12:11:59;;;;;;;;;;;25.90;99.90;;;;;;5049732;28;20397;-67
2022/06/13 12:14:26;;;;;;;;;;;25.50;99.90;;;;;;5044589;28;20406;-68
2022/06/13 12:16:58;;;;;;;;;;;25.10;99.90;;;;;;5029975;28;19937;-67
2022/06/13 12:19:34;;;;;;;;;;;24.90;99.90;;;;;;5045004;28;19925;-67
2022/06/13 12:22:03;;;;;;;;;;;24.50;99.90;;;;;;5041053;28;19933;-66
2022/06/13 12:24:35;;;;;;;;;;;24.30;99.90;;;;;;5029317;28;20001;-67
2022/06/13 12:27:04;;;;;;;;;;;25.30;99.90;;;;;;5045494;28;19933;-67
2022/06/13 12:29:48;;;;;;;;;;;25.80;99.90;;;;;;5033584;28;19929;-67
2022/06/13 12:32:16;;;;;;;;;;;25.90;99.90;;;;;;5040490;28;19925;-67
2022/06/13 12:34:49;;;;;;;;;;;27.00;99.90;;;;;;5034516;28;19925;-67
2022/06/13 12:37:21;;;;;;;;;;;27.20;99.90;;;;;;5032824;28;20043;-67
2022/06/13 12:39:54;;;;;;;;;;;26.30;99.90;;;;;;5045674;28;19933;-67
2022/06/13 12:42:41;;;;;;;;;;;25.00;99.90;;;;;;5031650;28;19925;-67
2022/06/13 12:45:16;;;;;;;;;;;24.20;99.90;;;;;;5034217;28;20152;-67
2022/06/13 12:47:52;;;;;;;;;;;24.50;99.90;;;;;;5028560;28;19933;-67
2022/06/13 12:50:30;;;;;;;;;;;24.50;99.90;;;;;;5026738;28;19929;-67
2022/06/13 12:53:08;;;;;;;;;;;23.30;99.90;;;;;;5034649;28;19932;-68
2022/06/13 12:55:42;;;;;;;;;;;22.50;99.90;;;;;;5026935;28;19936;-67
2022/06/13 12:58:24;;;;;;;;;;;22.60;99.90;;;;;;5052770;28;19929;-67
2022/06/13 13:00:53;;;;;;;;;;;24.30;99.90;;;;;;5036218;28;20340;-67
2022/06/13 13:03:44;;;;;;;;;;;25.70;99.90;;;;;;5030594;28;20289;-67
2022/06/13 13:06:15;;;;;;;;;;;26.30;99.90;;;;;;5027876;28;20420;-66
2022/06/13 13:08:49;;;;;;;;;;;25.60;99.90;;;;;;5037287;28;19925;-67
2022/06/13 13:11:23;;;;;;;;;;;25.30;99.90;;;;;;5043076;28;19932;-67
2022/06/13 13:13:53;;;;;;;;;;;25.40;99.90;;;;;;5026868;28;19965;-67
2022/06/13 13:16:25;;;;;;;;;;;25.80;99.90;;;;;;5040562;28;19925;-68
2022/06/13 13:18:57;;;;;;;;;;;25.70;99.90;;;;;;5041496;28;19925;-67
2022/06/13 13:21:30;;;;;;;;;;;24.80;99.90;;;;;;5032395;28;20466;-67
2022/06/13 13:24:07;;;;;;;;;;;23.80;99.90;;;;;;5042124;28;19979;-66
2022/06/13 13:26:47;;;;;;;;;;;23.70;99.90;;;;;;5022443;28;19932;-67
2022/06/13 13:29:22;;;;;;;;;;;24.30;99.90;;;;;;5026354;28;20226;-67
2022/06/13 13:31:50;;;;;;;;;;;24.90;99.90;;;;;;5022836;28;19940;-67
2022/06/13 13:34:25;;;;;;;;;;;25.10;99.90;;;;;;5024723;28;19924;-67
2022/06/13 13:37:00;;;;;;;;;;;25.10;99.90;;;;;;5042754;28;19924;-67
2022/06/13 13:39:35;;;;;;;;;;;25.00;99.90;;;;;;5035167;28;19925;-67
2022/06/13 13:42:06;;;;;;;;;;;26.10;99.90;;;;;;5033134;28;20388;-67
2022/06/13 13:44:34;;;;;;;;;;;26.30;99.90;;;;;;5034690;28;20352;-67
2022/06/13 13:47:04;;;;;;;;;;;26.50;99.90;;;;;;5045883;28;20539;-67
2022/06/13 13:49:32;;;;;;;;;;;25.70;99.90;;;;;;5034501;28;19975;-67
2022/06/13 13:52:03;;;;;;;;;;;26.00;99.90;;;;;;5024426;28;19933;-66
2022/06/13 13:54:32;;;;;;;;;;;25.90;99.90;;;;;;5043623;28;19983;-67
2022/06/13 13:57:06;;;;;;;;;;;25.70;99.90;;;;;;5031108;28;19925;-67
2022/06/13 13:59:35;;;;;;;;;;;25.40;99.90;;;;;;5028496;28;20389;-67
2022/06/13 14:02:06;;;;;;;;;;;25.30;99.90;;;;;;5046788;28;20415;-66
2022/06/13 14:04:43;;;;;;;;;;;25.40;99.90;;;;;;5029722;28;19925;-67
2022/06/13 14:07:31;;;;;;;;;;;25.40;99.90;;;;;;5034575;28;19929;-66
2022/06/13 14:09:59;;;;;;;;;;;25.00;99.90;;;;;;5036794;28;19929;-67
2022/06/13 14:12:26;;;;;;;;;;;24.90;99.90;;;;;;5046498;28;19925;-67
2022/06/13 14:15:06;;;;;;;;;;;25.00;99.90;;;;;;5038851;28;20427;-67
2022/06/13 14:17:38;;;;;;;;;;;25.40;99.90;;;;;;5031599;28;19926;-67
2022/06/13 14:20:08;;;;;;;;;;;25.40;99.90;;;;;;5030410;28;19930;-66
2022/06/13 14:22:38;;;;;;;;;;;26.00;99.90;;;;;;5045422;28;20369;-67
2022/06/13 14:25:06;;;;;;;;;;;26.90;99.90;;;;;;5029448;28;19926;-67
2022/06/13 14:27:34;;;;;;;;;;;26.70;99.90;;;;;;5035991;28;19947;-67
2022/06/13 14:32:58;;;;;;;;;;;27.70;99.90;;;;;;5035118;28;20480;-67
2022/06/13 14:35:56;;;;;;;;;;;28.90;99.90;;;;;;5026311;28;19976;-67
2022/06/13 14:38:29;;;;;;;;;;;28.90;99.90;;;;;;4958925;28;19925;-66
2022/06/13 14:40:58;;;;;;;;;;;28.00;99.90;;;;;;5031963;28;19929;-67
2022/06/13 14:43:43;;;;;;;;;;;27.60;99.90;;;;;;5055726;28;19925;-67
2022/06/13 14:46:19;;;;;;;;;;;27.70;99.90;;;;;;5051456;28;20601;-64
2022/06/13 14:48:48;;;;;;;;;;;27.30;99.90;;;;;;5033266;28;19929;-67
2022/06/13 14:51:24;;;;;;;;;;;27.00;99.90;;;;;;5033686;28;20003;-66
2022/06/13 14:53:52;;;;;;;;;;;27.40;99.90;;;;;;5042805;28;20013;-67
2022/06/13 14:56:30;;;;;;;;;;;27.40;99.90;;;;;;5040848;28;19924;-67